LGAV/ATH METAR and TAF weather

Enter ICAO airport designator
Station Type Date Time Source
LGAV METAR 2018/12/11 17:50 UTC NOAA

LGAV 111750Z VRB03KT 9999 -RA SCT030 BKN070 08/04 Q1014 NOSIG


Station Type Date Time Source
LGAV Decoded METAR 2018/12/11 17:50 UTC NOAA

Athens Eleftherios Venizelos International Airport, Greece (LGAV) 37-56N 023-56E
Dec 11, 2018 - 12:50 PM EST / 2018.12.11 1750 UTC
Wind: Variable at 3 MPH (3 KT):0
Visibility: greater than 7 mile(s):0
Sky conditions: mostly cloudy
Weather: light rain
Temperature: 46 F (8 C)
Dew Point: 39 F (4 C)
Relative Humidity: 75%
Pressure (altimeter): 29.94 in. Hg (1014 hPa)
ob: LGAV 111750Z VRB03KT 9999 -RA SCT030 BKN070 08/04 Q1014 NOSIG
cycle: 18

Station Type Date Time Source
LGAV TAF 2018/12/11 18:12 UTC NOAA

TAF TAF LGAV 111700Z 1118/1218 01010KT 9999 SCT020 BKN070 PROB40
TEMPO 1118/1123 5000 RA FEW015 BKN030 BKN070 PROB30
TEMPO 1118/1122 4000 TSRA FEW010 FEW018CB BKN030 OVC070
BECMG 1118/1120 33015KT
BECMG 1210/1212 VRB05KT


Example: see airport list